Time;durP1;ratioP1;P1;durP2;ratioP2;P2;SDS_P1;SDS_P2;PMS_P1;PMS_P2;Temp;Humidity;BMP_temperature;BMP_pressure;BME280_temperature;BME280_humidity;BME280_pressure;Samples;Min_cycle;Max_cycle;Signal;HPM_P1;HPM_P2
2021/07/30 00:00:17;;;;;;;7.20;6.13;;;17.20;99.90;;;17.14;88.88;97853.56;5029244;28;21005;-62
2021/07/30 00:02:47;;;;;;;7.93;7.13;;;17.10;99.90;;;17.12;89.06;97858.97;5033580;28;20669;-62
2021/07/30 00:05:16;;;;;;;6.90;6.20;;;17.10;99.90;;;17.13;87.87;97860.63;5027962;28;20659;-62
2021/07/30 00:07:45;;;;;;;8.70;5.57;;;17.10;99.90;;;17.13;89.07;97873.78;5026089;28;20655;-62
2021/07/30 00:10:14;;;;;;;9.23;5.50;;;17.10;99.90;;;17.12;88.46;97868.69;5027486;28;20631;-63
2021/07/30 00:12:42;;;;;;;7.37;6.30;;;17.10;99.90;;;17.07;88.34;97855.94;5024820;28;21241;-63
2021/07/30 00:15:11;;;;;;;8.00;5.90;;;17.00;99.90;;;17.04;87.93;97855.44;5028348;28;20726;-62
2021/07/30 00:17:40;;;;;;;7.47;6.07;;;17.00;99.90;;;17.00;88.35;97859.31;5028712;28;21067;-63
2021/07/30 00:20:11;;;;;;;6.70;5.90;;;17.00;99.90;;;16.98;89.03;97865.75;5030163;28;20628;-62
2021/07/30 00:22:39;;;;;;;9.03;6.43;;;17.00;99.90;;;16.96;88.92;97855.34;5035159;28;20753;-62
2021/07/30 00:25:09;;;;;;;7.27;6.13;;;16.90;99.90;;;16.92;87.53;97855.81;5036484;28;20667;-63
2021/07/30 00:27:38;;;;;;;6.73;6.03;;;16.90;99.90;;;16.86;87.58;97857.22;5033201;28;21402;-62
2021/07/30 00:30:09;;;;;;;7.10;6.40;;;16.90;99.90;;;16.85;89.79;97858.19;5034175;28;21201;-63
2021/07/30 00:32:38;;;;;;;9.90;6.00;;;16.90;99.90;;;16.82;89.51;97853.22;5035554;28;20737;-62
2021/07/30 00:35:07;;;;;;;8.80;6.20;;;16.80;99.90;;;16.79;88.73;97842.97;5030243;28;20658;-61
2021/07/30 00:37:38;;;;;;;7.30;6.43;;;16.80;99.90;;;16.76;88.01;97853.81;5035801;28;20945;-62
2021/07/30 00:40:08;;;;;;;9.03;6.50;;;16.80;99.90;;;16.70;89.11;97843.88;5033874;28;20667;-61
2021/07/30 00:42:37;;;;;;;7.23;6.50;;;16.70;99.90;;;16.66;88.55;97850.41;5035400;28;20748;-61
2021/07/30 00:45:06;;;;;;;6.50;5.60;;;16.70;99.90;;;16.64;88.16;97847.13;5031375;28;20660;-61
2021/07/30 00:47:35;;;;;;;8.10;6.63;;;16.70;99.90;;;16.55;86.94;97840.09;5036091;28;21180;-62
2021/07/30 00:50:04;;;;;;;8.50;6.20;;;16.60;99.90;;;16.54;87.35;97840.25;5031835;28;20742;-61
2021/07/30 00:52:33;;;;;;;7.60;6.17;;;16.60;99.90;;;16.51;87.70;97846.63;5035900;28;20991;-62
2021/07/30 00:55:05;;;;;;;6.00;5.40;;;16.50;99.90;;;16.52;89.27;97847.44;5032239;28;20637;-62
2021/07/30 00:57:34;;;;;;;9.50;6.20;;;16.50;99.90;;;16.50;88.28;97843.31;5026232;28;21081;-62
2021/07/30 01:00:02;;;;;;;7.63;6.50;;;16.50;99.90;;;16.50;89.64;97845.94;5036977;28;20634;-61
2021/07/30 01:02:32;;;;;;;7.97;5.60;;;16.50;99.90;;;16.51;89.52;97840.53;5031239;28;20644;-62
2021/07/30 01:05:01;;;;;;;8.60;6.27;;;16.50;99.90;;;16.50;89.79;97840.69;5033709;28;20658;-62
2021/07/30 01:07:30;;;;;;;8.10;6.43;;;16.50;99.90;;;16.51;90.39;97848.44;5024815;28;20669;-61
2021/07/30 01:10:00;;;;;;;11.40;6.60;;;16.50;99.90;;;16.48;88.01;97842.63;5028498;28;20627;-61
2021/07/30 01:12:30;;;;;;;7.40;6.00;;;16.50;99.90;;;16.43;89.27;97832.50;5029303;28;20741;-61
2021/07/30 01:14:59;;;;;;;8.23;6.10;;;16.40;99.90;;;16.38;87.49;97828.69;5030860;28;20629;-62
2021/07/30 01:17:28;;;;;;;6.40;5.80;;;16.40;99.90;;;16.34;88.08;97837.84;5027882;28;20741;-62
2021/07/30 01:19:56;;;;;;;8.27;5.97;;;16.40;99.90;;;16.31;90.12;97843.41;5026599;28;20703;-61
2021/07/30 01:22:33;;;;;;;7.30;5.37;;;16.30;99.90;;;16.31;87.90;97843.41;5030666;28;20764;-61
2021/07/30 01:25:05;;;;;;;6.80;6.00;;;16.30;99.90;;;16.30;87.81;97847.03;5029835;28;21016;-61
2021/07/30 01:27:33;;;;;;;7.17;5.70;;;16.30;99.90;;;16.27;88.06;97847.31;5034089;28;20629;-62
2021/07/30 01:30:03;;;;;;;6.27;5.67;;;16.30;99.90;;;16.20;87.75;97841.75;5035102;28;20715;-62
2021/07/30 01:32:31;;;;;;;6.77;6.07;;;16.20;99.90;;;16.19;88.38;97828.72;5025820;28;20744;-61
2021/07/30 01:35:03;;;;;;;10.63;6.70;;;16.20;99.90;;;16.19;89.92;97845.38;5028070;28;20633;-61
2021/07/30 01:37:32;;;;;;;8.90;6.23;;;16.20;99.90;;;16.14;87.90;97836.25;5022901;28;21124;-61
2021/07/30 01:40:03;;;;;;;7.63;6.30;;;16.10;99.90;;;16.09;88.54;97846.38;5033887;28;20643;-61
2021/07/30 01:42:31;;;;;;;8.10;5.70;;;16.10;99.90;;;16.06;88.26;97838.78;5027146;28;20984;-62
2021/07/30 01:45:00;;;;;;;7.23;5.73;;;16.10;99.90;;;16.04;89.44;97841.56;5031673;28;20652;-62
2021/07/30 01:47:31;;;;;;;7.00;6.13;;;16.00;99.90;;;16.03;90.11;97839.06;5036051;28;20661;-61
2021/07/30 01:49:59;;;;;;;9.03;5.60;;;16.00;99.90;;;16.01;88.92;97846.25;5023542;28;21135;-62
2021/07/30 01:52:29;;;;;;;7.47;6.00;;;16.00;99.90;;;15.95;88.53;97840.75;5032857;28;20644;-61
2021/07/30 01:54:58;;;;;;;7.53;6.03;;;15.90;99.90;;;15.85;89.55;97840.78;5032321;28;20625;-62
2021/07/30 01:57:28;;;;;;;8.83;6.20;;;15.90;99.90;;;15.78;89.64;97842.31;5034500;28;20634;-62
2021/07/30 01:59:58;;;;;;;7.87;6.57;;;15.80;99.90;;;15.77;88.18;97838.03;5030483;28;20658;-62
2021/07/30 02:02:31;;;;;;;6.43;5.83;;;15.80;99.90;;;15.81;88.30;97836.78;5026078;28;21004;-62
2021/07/30 02:05:01;;;;;;;6.47;5.80;;;15.80;99.90;;;15.82;88.42;97832.34;5032093;28;20741;-62
2021/07/30 02:07:30;;;;;;;9.20;5.70;;;15.80;99.90;;;15.82;90.42;97835.81;5020142;28;20738;-61
2021/07/30 02:09:59;;;;;;;10.43;6.20;;;15.80;99.90;;;15.80;88.76;97829.88;5030157;28;20747;-61
2021/07/30 02:12:29;;;;;;;6.83;6.13;;;15.80;99.90;;;15.76;90.39;97839.00;5037073;28;20708;-62
2021/07/30 02:14:57;;;;;;;6.83;5.50;;;15.80;99.90;;;15.75;89.42;97842.59;5023424;28;20624;-62
2021/07/30 02:17:26;;;;;;;8.13;5.90;;;15.70;99.90;;;15.71;89.47;97846.50;5028309;28;21164;-62
2021/07/30 02:19:54;;;;;;;5.80;5.30;;;15.70;99.90;;;15.68;88.97;97838.91;5025836;28;20640;-62
2021/07/30 02:22:23;;;;;;;8.17;6.13;;;15.70;99.90;;;15.61;89.76;97827.28;5030148;28;21277;-61
2021/07/30 02:24:51;;;;;;;6.60;5.80;;;15.60;99.90;;;15.60;89.15;97836.13;5037429;28;20667;-63
2021/07/30 02:27:20;;;;;;;7.23;5.90;;;15.60;99.90;;;15.56;89.37;97834.78;5026886;28;21216;-62
2021/07/30 02:29:50;;;;;;;7.10;5.77;;;15.60;99.90;;;15.56;88.87;97824.25;5030677;28;21014;-62
2021/07/30 02:32:18;;;;;;;6.93;6.23;;;15.60;99.90;;;15.58;90.39;97824.94;5033744;28;20635;-62
2021/07/30 02:34:47;;;;;;;8.00;6.30;;;15.60;99.90;;;15.61;88.83;97832.53;5026551;28;20721;-60
2021/07/30 02:37:15;;;;;;;6.33;5.60;;;15.60;99.90;;;15.60;90.23;97825.59;5027770;28;21214;-62
2021/07/30 02:39:44;;;;;;;7.37;6.10;;;15.60;99.90;;;15.59;90.50;97829.22;5032397;28;21046;-61
2021/07/30 02:42:12;;;;;;;7.63;5.80;;;15.60;99.90;;;15.60;89.24;97827.41;5030287;28;20718;-62
2021/07/30 02:44:41;;;;;;;7.57;5.80;;;15.60;99.90;;;15.58;90.86;97832.81;5028519;28;20739;-60
2021/07/30 02:47:11;;;;;;;7.43;5.90;;;15.60;99.90;;;15.57;90.73;97832.97;5029747;28;20624;-62
2021/07/30 02:49:39;;;;;;;9.07;6.40;;;15.60;99.90;;;15.53;89.25;97822.88;5029825;28;20634;-63
2021/07/30 02:52:08;;;;;;;6.70;5.80;;;15.50;99.90;;;15.52;88.89;97826.50;5031799;28;20674;-62
2021/07/30 02:54:37;;;;;;;6.93;5.47;;;15.50;99.90;;;15.49;89.03;97819.69;5027615;28;20654;-61
2021/07/30 02:57:06;;;;;;;7.87;6.00;;;15.50;99.90;;;15.48;89.63;97825.09;5029150;28;20653;-61
2021/07/30 02:59:34;;;;;;;9.17;5.63;;;15.50;99.90;;;15.47;89.67;97823.44;5031740;28;20628;-61
2021/07/30 03:02:03;;;;;;;6.80;6.10;;;15.50;99.90;;;15.44;90.13;97815.81;5028903;28;20631;-61
2021/07/30 03:04:33;;;;;;;6.23;5.60;;;15.50;99.90;;;15.42;90.21;97815.16;5025535;28;20632;-61
2021/07/30 03:07:02;;;;;;;7.37;5.27;;;15.50;99.90;;;15.41;90.49;97824.00;5033950;28;21043;-62
2021/07/30 03:09:30;;;;;;;9.43;6.00;;;15.40;99.90;;;15.39;90.19;97816.25;5031997;28;20730;-61
2021/07/30 03:11:59;;;;;;;8.70;5.30;;;15.40;99.90;;;15.37;89.71;97818.19;5029301;28;21265;-61
2021/07/30 03:14:27;;;;;;;6.97;5.53;;;15.40;99.90;;;15.35;89.99;97819.28;5025503;28;20629;-62
2021/07/30 03:16:56;;;;;;;6.60;5.93;;;15.40;99.90;;;15.31;90.13;97810.88;5029348;28;21051;-62
2021/07/30 03:19:24;;;;;;;6.20;5.60;;;15.40;99.90;;;15.30;90.56;97806.56;5031171;28;20686;-61
2021/07/30 03:21:55;;;;;;;9.33;6.40;;;15.40;99.90;;;15.32;89.20;97809.06;5022532;28;21223;-62
2021/07/30 03:24:23;;;;;;;5.87;5.27;;;15.40;99.90;;;15.29;89.31;97799.69;5022638;28;20974;-62
2021/07/30 03:26:52;;;;;;;5.90;5.00;;;15.30;99.90;;;15.23;88.28;97804.66;5026223;28;20668;-62
2021/07/30 03:29:21;;;;;;;6.70;5.97;;;15.30;99.90;;;15.16;88.14;97798.28;5022319;28;20732;-60
2021/07/30 03:31:51;;;;;;;6.20;5.60;;;15.20;99.90;;;15.10;89.65;97793.59;5028564;28;20676;-61
2021/07/30 03:34:19;;;;;;;7.17;5.53;;;15.20;99.90;;;15.07;90.20;97794.69;5025275;28;21017;-62
2021/07/30 03:36:48;;;;;;;7.07;6.13;;;15.10;99.90;;;15.08;88.66;97787.66;5027642;28;20682;-62
2021/07/30 03:39:18;;;;;;;7.97;6.10;;;15.10;99.90;;;15.06;89.19;97796.63;5030897;28;20630;-61
2021/07/30 03:41:46;;;;;;;6.00;5.40;;;15.10;99.90;;;15.07;89.27;97790.41;5032488;28;20666;-62
2021/07/30 03:44:15;;;;;;;8.43;5.97;;;15.10;99.90;;;15.06;89.38;97789.56;5024073;28;21092;-61
2021/07/30 03:46:43;;;;;;;6.60;5.97;;;15.10;99.90;;;15.05;90.60;97793.19;5024224;28;20703;-61
2021/07/30 03:49:12;;;;;;;7.53;6.00;;;15.10;99.90;;;15.04;89.92;97793.31;5021182;28;20728;-63
2021/07/30 03:51:40;;;;;;;7.30;5.70;;;15.10;99.90;;;15.05;90.49;97792.34;5028869;28;20709;-62
2021/07/30 03:54:10;;;;;;;7.50;5.43;;;15.10;99.90;;;15.03;89.51;97792.47;5035792;28;20646;-61
2021/07/30 03:56:41;;;;;;;6.60;5.70;;;15.00;99.90;;;15.01;90.78;97785.72;5033014;28;20742;-60
2021/07/30 03:59:10;;;;;;;8.33;6.20;;;15.00;99.90;;;15.01;90.62;97781.28;5025510;28;20625;-62
2021/07/30 04:01:47;;;;;;;9.40;6.70;;;15.00;99.90;;;15.04;89.40;97785.44;5027359;28;20638;-61
2021/07/30 04:04:16;;;;;;;7.50;6.33;;;15.00;99.90;;;15.02;89.13;97779.47;5043774;28;20747;-62
2021/07/30 04:06:45;;;;;;;7.80;6.30;;;15.10;99.90;;;15.01;89.94;97777.84;5031257;28;20676;-61
2021/07/30 04:09:15;;;;;;;7.20;5.80;;;15.00;99.90;;;14.99;89.25;97775.34;5024485;28;20663;-62
2021/07/30 04:11:46;;;;;;;9.20;6.40;;;15.00;99.90;;;14.98;89.56;97783.38;5024716;28;20636;-61
2021/07/30 04:14:14;;;;;;;7.67;6.43;;;15.00;99.90;;;15.00;88.97;97781.44;5030955;28;20631;-62
2021/07/30 04:16:43;;;;;;;7.63;6.50;;;15.00;99.90;;;14.99;90.59;97785.00;5027238;28;20628;-62
2021/07/30 04:19:11;;;;;;;7.80;6.50;;;15.00;99.90;;;15.00;91.08;97779.63;5035309;28;20681;-63
2021/07/30 04:21:40;;;;;;;8.50;5.90;;;15.00;99.90;;;15.03;89.49;97781.16;5027089;28;21001;-61
2021/07/30 04:24:08;;;;;;;9.93;6.83;;;15.00;99.90;;;15.04;89.30;97794.13;5026902;28;20731;-61
2021/07/30 04:26:37;;;;;;;10.57;7.13;;;15.00;99.90;;;15.06;90.28;97780.88;5029542;28;20672;-61
2021/07/30 04:29:07;;;;;;;8.57;6.23;;;15.10;99.90;;;15.07;89.38;97784.19;5029234;28;20636;-62
2021/07/30 04:31:39;;;;;;;8.30;6.50;;;15.10;99.90;;;15.08;90.12;97785.03;5024960;28;20731;-62
2021/07/30 04:34:08;;;;;;;7.87;6.30;;;15.10;99.90;;;15.12;89.27;97786.38;5030347;28;20630;-61
2021/07/30 04:36:36;;;;;;;8.33;6.30;;;15.10;99.90;;;15.13;90.55;97783.63;5026668;28;20625;-62
2021/07/30 04:39:05;;;;;;;8.83;7.33;;;15.10;99.90;;;15.17;90.73;97778.97;5029754;28;20733;-62
2021/07/30 04:41:35;;;;;;;7.73;6.60;;;15.20;99.90;;;15.18;89.53;97777.97;5027729;28;21222;-62
2021/07/30 04:44:07;;;;;;;8.97;6.40;;;15.20;99.90;;;15.21;89.92;97780.31;5031088;28;20644;-62
2021/07/30 04:46:35;;;;;;;8.13;6.63;;;15.20;99.90;;;15.24;90.99;97775.59;5029144;28;21278;-62
2021/07/30 04:49:04;;;;;;;11.03;6.60;;;15.20;99.90;;;15.27;90.89;97775.31;5022681;28;20676;-62
2021/07/30 04:51:34;;;;;;;9.70;6.67;;;15.30;99.90;;;15.32;89.39;97777.53;5030923;28;20670;-62
2021/07/30 04:54:03;;;;;;;11.83;6.70;;;15.30;99.90;;;15.37;90.94;97783.22;5028886;28;20629;-62
2021/07/30 04:56:31;;;;;;;8.50;6.40;;;15.30;99.90;;;15.41;89.93;97781.94;5021613;28;20638;-62
2021/07/30 04:58:59;;;;;;;7.20;5.90;;;15.40;99.90;;;15.44;89.64;97785.13;5023484;28;20620;-61
2021/07/30 05:01:29;;;;;;;7.50;6.70;;;15.40;99.90;;;15.48;89.05;97785.66;5027018;28;20670;-62
2021/07/30 05:03:58;;;;;;;7.83;6.20;;;15.50;99.90;;;15.52;89.25;97777.34;5019990;28;21054;-61
2021/07/30 05:06:27;;;;;;;8.37;6.33;;;15.50;99.90;;;15.56;89.23;97782.19;5032479;28;20672;-61
2021/07/30 05:08:55;;;;;;;8.07;6.30;;;15.60;99.90;;;15.60;89.52;97775.66;5039069;28;20730;-61
2021/07/30 05:11:24;;;;;;;6.80;6.10;;;15.60;99.90;;;15.64;89.76;97782.28;5035466;28;20673;-61
2021/07/30 05:13:53;;;;;;;7.33;5.80;;;15.60;99.90;;;15.71;89.45;97785.16;5031071;28;20733;-62
2021/07/30 05:16:22;;;;;;;7.90;6.20;;;15.70;99.90;;;15.76;88.72;97785.59;5023709;28;20629;-61
2021/07/30 05:18:52;;;;;;;7.60;6.07;;;15.70;99.90;;;15.79;88.79;97791.38;5025031;28;20628;-62
2021/07/30 05:21:23;;;;;;;8.70;6.20;;;15.70;99.90;;;15.85;89.47;97790.81;5022270;28;20811;-62
2021/07/30 05:23:52;;;;;;;6.90;6.00;;;15.80;99.90;;;15.90;88.51;97790.38;5027557;28;20638;-62
2021/07/30 05:26:21;;;;;;;8.87;6.43;;;15.80;99.90;;;15.94;90.93;97787.31;5025877;28;20690;-61
2021/07/30 05:28:49;;;;;;;10.83;5.77;;;15.90;99.90;;;16.02;90.28;97789.22;5033563;28;20624;-62
2021/07/30 05:31:19;;;;;;;9.67;6.37;;;15.90;99.90;;;16.06;90.81;97788.78;5027498;28;20629;-62
2021/07/30 05:33:48;;;;;;;6.57;5.50;;;16.00;99.90;;;16.13;90.13;97787.22;5025305;28;20640;-61
2021/07/30 05:36:20;;;;;;;6.87;5.10;;;16.00;99.90;;;16.23;88.29;97783.59;5024582;28;20645;-61
2021/07/30 05:38:49;;;;;;;8.83;5.03;;;16.10;99.90;;;16.34;89.31;97791.31;5036223;28;20640;-62
2021/07/30 05:41:19;;;;;;;7.10;5.70;;;16.20;99.90;;;16.51;87.34;97788.69;5033058;28;20640;-61
2021/07/30 05:43:49;;;;;;;8.23;5.77;;;16.30;99.90;;;16.87;88.82;97798.28;5032553;28;20642;-61
2021/07/30 05:46:19;;;;;;;6.03;5.43;;;16.60;99.90;;;17.29;86.44;97796.69;5030011;28;21017;-62
2021/07/30 05:48:52;;;;;;;6.37;5.67;;;16.90;99.90;;;17.71;86.14;97795.84;5033193;28;20630;-62
2021/07/30 05:51:22;;;;;;;7.57;5.30;;;17.30;99.90;;;18.16;84.84;97800.75;5037476;28;20678;-62
2021/07/30 05:53:50;;;;;;;6.83;5.37;;;17.80;99.90;;;18.59;83.26;97804.03;5033985;28;20626;-62
2021/07/30 05:56:19;;;;;;;6.73;4.90;;;18.20;99.90;;;18.97;83.15;97801.66;5033387;28;20691;-61
2021/07/30 05:58:47;;;;;;;7.23;5.30;;;18.50;99.90;;;19.30;81.15;97795.41;5029776;28;20630;-62
2021/07/30 06:01:16;;;;;;;7.47;5.70;;;18.90;99.50;;;19.61;79.60;97793.75;5025312;28;20675;-61
2021/07/30 06:03:48;;;;;;;8.57;5.60;;;19.20;98.70;;;19.96;78.97;97792.38;5023014;28;20650;-62
2021/07/30 06:06:16;;;;;;;5.27;4.77;;;19.50;98.20;;;20.25;76.43;97797.94;5029772;28;20774;-62
2021/07/30 06:08:46;;;;;;;6.80;5.50;;;19.80;97.00;;;20.48;76.93;97799.63;5030110;28;20768;-61
2021/07/30 06:11:18;;;;;;;5.87;5.27;;;20.10;96.50;;;20.71;75.05;97795.25;5026942;28;20676;-62
2021/07/30 06:13:46;;;;;;;8.77;5.60;;;20.30;95.80;;;20.95;74.92;97795.09;5026023;28;21018;-62
2021/07/30 06:16:15;;;;;;;5.73;5.13;;;20.60;95.50;;;21.17;76.00;97789.81;5035602;28;20635;-63
2021/07/30 06:19:04;;;;;;;9.20;5.00;;;20.80;95.50;;;21.47;76.08;97794.22;5029280;28;20627;-62
2021/07/30 06:21:33;;;;;;;7.73;5.43;;;21.00;95.50;;;21.60;73.70;97795.25;5032181;28;21050;-62
2021/07/30 06:24:03;;;;;;;6.57;5.93;;;21.20;94.00;;;21.79;74.36;97790.25;5027324;28;20676;-62
2021/07/30 06:26:32;;;;;;;6.00;5.40;;;21.40;94.30;;;21.91;73.14;97794.13;5029755;28;20650;-62
2021/07/30 06:29:00;;;;;;;5.87;5.30;;;21.50;93.50;;;22.14;73.06;97799.38;5029446;28;20693;-62
2021/07/30 06:31:29;;;;;;;7.20;4.60;;;21.70;93.20;;;22.45;72.74;97791.03;5026945;28;21310;-61
2021/07/30 06:33:57;;;;;;;5.73;4.83;;;22.00;93.60;;;22.71;72.43;97802.81;5026801;28;21016;-61
2021/07/30 06:36:26;;;;;;;5.47;4.73;;;22.20;92.90;;;22.83;70.08;97789.84;5025781;28;20629;-63
2021/07/30 06:38:55;;;;;;;6.13;4.50;;;22.40;91.30;;;23.07;72.31;97784.22;5026321;28;20684;-61
2021/07/30 06:41:25;;;;;;;5.73;4.93;;;22.60;92.20;;;23.28;71.25;97788.53;5028644;28;20731;-62
2021/07/30 06:43:54;;;;;;;5.67;4.70;;;22.80;91.60;;;23.49;70.08;97785.84;5025554;28;20651;-62
2021/07/30 06:46:23;;;;;;;6.90;5.00;;;23.00;90.90;;;23.74;69.51;97787.13;5029325;28;20737;-62
2021/07/30 06:48:51;;;;;;;5.73;4.83;;;23.20;90.70;;;23.98;69.93;97784.84;5026251;28;20670;-62
2021/07/30 06:51:20;;;;;;;5.70;4.70;;;23.50;90.80;;;24.24;67.52;97785.81;5032397;28;20638;-63
2021/07/30 06:53:48;;;;;;;7.33;5.10;;;23.70;89.60;;;24.46;66.82;97790.09;5027704;28;20680;-63
2021/07/30 06:56:18;;;;;;;5.23;4.73;;;23.90;87.20;;;24.44;66.96;97784.09;5026047;28;20735;-62
2021/07/30 06:58:47;;;;;;;6.03;4.80;;;24.00;85.80;;;24.53;66.60;97785.56;5029952;28;20716;-62
2021/07/30 07:01:16;;;;;;;4.97;4.47;;;24.00;84.60;;;24.74;64.89;97783.59;5029723;28;20632;-62
2021/07/30 07:03:46;;;;;;;6.57;5.37;;;24.20;82.90;;;24.87;64.68;97782.84;5022098;28;20636;-62
2021/07/30 07:06:16;;;;;;;5.50;4.90;;;24.40;83.80;;;25.01;65.10;97777.38;5025220;28;20769;-62
2021/07/30 07:08:45;;;;;;;5.93;4.60;;;24.60;82.50;;;25.21;65.11;97779.06;5028495;28;20700;-61
2021/07/30 07:11:14;;;;;;;5.40;4.90;;;24.80;82.70;;;25.27;63.82;97770.25;5030771;28;20725;-62
2021/07/30 07:13:43;;;;;;;7.03;4.90;;;24.80;79.40;;;25.31;63.99;97760.78;5031024;28;20637;-62
2021/07/30 07:16:13;;;;;;;5.13;4.53;;;24.80;79.20;;;25.73;65.82;97760.41;5019575;28;21215;-62
2021/07/30 07:18:42;;;;;;;5.20;4.70;;;25.20;82.60;;;26.04;63.26;97761.41;5031429;28;20648;-62
2021/07/30 07:21:13;;;;;;;6.67;4.63;;;25.40;79.70;;;26.26;62.75;97763.59;5030340;28;20651;-62
2021/07/30 07:23:42;;;;;;;5.10;4.60;;;25.70;78.10;;;26.41;62.28;97750.00;5027077;28;21174;-62
2021/07/30 07:26:11;;;;;;;6.73;4.70;;;25.90;77.00;;;26.59;64.58;97754.44;5032810;28;20682;-62
2021/07/30 07:28:39;;;;;;;4.63;4.13;;;26.00;80.10;;;26.79;61.86;97754.38;5029671;28;20707;-62
2021/07/30 07:31:08;;;;;;;4.80;4.30;;;26.30;76.40;;;26.87;61.89;97752.28;5022274;28;20766;-62
2021/07/30 07:33:38;;;;;;;5.37;4.87;;;26.40;75.40;;;27.06;62.62;97740.66;5024685;28;20727;-62
2021/07/30 07:36:07;;;;;;;5.77;5.23;;;26.60;76.10;;;27.24;60.53;97746.94;5019565;28;20681;-62
2021/07/30 07:38:35;;;;;;;4.50;4.10;;;26.80;72.50;;;27.45;61.89;97751.09;5026351;28;20724;-62
2021/07/30 07:41:04;;;;;;;5.10;4.17;;;26.90;75.20;;;27.65;60.31;97748.06;5023286;28;20633;-62
2021/07/30 07:43:32;;;;;;;12.33;9.30;;;27.10;72.00;;;27.77;61.65;97738.28;5025864;28;20684;-62
2021/07/30 07:46:01;;;;;;;4.70;4.30;;;27.20;74.00;;;27.96;60.77;97744.50;5035552;28;20701;-63
2021/07/30 07:48:31;;;;;;;5.77;4.57;;;27.50;73.10;;;28.12;60.14;97744.78;5029273;28;20653;-62
2021/07/30 07:51:02;;;;;;;5.33;4.83;;;27.60;71.20;;;28.22;60.08;97740.53;5010118;28;20997;-63
2021/07/30 07:53:31;;;;;;;7.03;5.37;;;27.80;70.50;;;28.41;58.89;97742.16;5024020;28;20674;-62
2021/07/30 07:56:03;;;;;;;4.87;4.47;;;27.90;68.70;;;28.50;58.54;97740.81;5027628;28;20642;-63
2021/07/30 07:58:33;;;;;;;5.20;4.70;;;28.10;66.30;;;28.58;58.58;97743.19;5029042;28;20680;-63
2021/07/30 08:01:02;;;;;;;5.40;4.90;;;28.10;66.10;;;28.71;60.50;97741.19;5025945;28;20690;-63
2021/07/30 08:03:31;;;;;;;6.20;4.83;;;28.30;69.50;;;28.76;58.36;97735.97;5023627;28;20641;-62
2021/07/30 08:06:01;;;;;;;5.90;4.60;;;28.40;66.00;;;28.83;60.21;97736.69;5034890;28;20765;-62
2021/07/30 08:08:30;;;;;;;7.00;4.70;;;28.40;68.30;;;28.91;60.22;97746.31;5030971;28;20667;-62
2021/07/30 08:10:58;;;;;;;5.63;5.13;;;28.50;69.00;;;28.99;58.34;97736.06;5029074;28;20625;-62
2021/07/30 08:13:27;;;;;;;5.20;4.73;;;28.50;64.10;;;29.01;56.53;97739.34;5023710;28;21169;-62
2021/07/30 08:15:56;;;;;;;5.03;4.50;;;28.60;63.00;;;29.01;57.36;97733.97;5027619;28;21194;-63
2021/07/30 08:18:24;;;;;;;5.63;4.47;;;28.60;62.50;;;29.02;58.69;97735.63;5017805;28;20742;-62
2021/07/30 08:20:53;;;;;;;5.73;5.13;;;28.60;64.60;;;29.09;58.94;97734.47;5029508;28;21216;-70
2021/07/30 08:23:23;;;;;;;5.53;5.03;;;28.70;65.40;;;29.17;59.13;97741.41;5030569;28;20685;-65
2021/07/30 08:25:51;;;;;;;5.73;5.23;;;28.80;66.00;;;29.19;58.44;97728.53;5022099;28;20637;-63
2021/07/30 08:28:20;;;;;;;9.57;5.40;;;28.80;64.30;;;29.17;55.58;97730.66;5028808;28;20683;-64
2021/07/30 08:30:49;;;;;;;5.27;4.80;;;28.80;59.60;;;29.16;58.34;97727.13;5024373;28;20626;-63
2021/07/30 08:33:17;;;;;;;5.57;5.07;;;28.80;63.70;;;29.20;58.31;97739.06;5025187;28;21071;-63
2021/07/30 08:35:46;;;;;;;5.63;5.03;;;28.80;64.10;;;29.19;56.60;97729.34;5031685;28;20728;-63
2021/07/30 08:38:14;;;;;;;6.37;5.73;;;28.80;60.30;;;29.21;57.79;97737.19;5026785;28;21385;-63
2021/07/30 08:40:45;;;;;;;6.67;5.33;;;28.80;63.30;;;29.20;59.18;97733.69;5030775;28;20645;-63
2021/07/30 08:43:15;;;;;;;6.47;5.87;;;28.80;64.80;;;29.14;59.28;97729.22;5045484;28;21294;-63
2021/07/30 08:45:50;;;;;;;5.77;5.00;;;28.80;63.90;;;29.05;57.82;97730.59;5029484;28;20708;-63
2021/07/30 08:48:20;;;;;;;5.90;5.30;;;28.60;62.40;;;28.89;58.40;97727.72;5031178;28;20729;-63
2021/07/30 08:50:49;;;;;;;6.40;5.77;;;28.50;62.80;;;28.79;57.39;97730.16;5029673;28;20704;-63
2021/07/30 08:53:26;;;;;;;5.73;5.20;;;28.40;61.30;;;28.97;58.95;97729.28;5030073;28;20685;-63
2021/07/30 08:55:56;;;;;;;7.23;6.47;;;28.50;64.60;;;28.98;58.08;97736.31;5027019;28;20715;-63
2021/07/30 08:58:25;;;;;;;8.47;6.13;;;28.50;62.20;;;29.11;58.42;97729.69;5025281;28;20744;-64
2021/07/30 09:00:53;;;;;;;6.33;5.10;;;28.70;63.60;;;29.18;58.66;97722.34;5032482;28;20651;-63
2021/07/30 09:03:22;;;;;;;10.67;7.33;;;28.80;64.40;;;29.21;58.29;97719.22;5032609;28;20657;-63
2021/07/30 09:05:51;;;;;;;7.53;5.77;;;28.80;62.40;;;29.24;57.26;97718.75;5030809;28;20669;-63
2021/07/30 09:08:25;;;;;;;5.37;4.87;;;28.80;61.90;;;29.23;59.49;97714.44;5032972;28;21203;-63
2021/07/30 09:10:54;;;;;;;5.63;5.13;;;28.80;63.30;;;29.27;57.63;97709.41;5032500;28;20684;-63
2021/07/30 09:13:26;;;;;;;7.77;5.60;;;28.90;61.40;;;29.33;57.27;97709.31;5026578;28;20629;-63
2021/07/30 09:16:07;;;;;;;5.37;4.87;;;28.90;61.10;;;29.36;58.39;97700.78;5028293;28;20735;-63
2021/07/30 09:18:38;;;;;;;6.90;5.27;;;28.90;62.30;;;29.28;56.92;97705.69;5029781;28;20753;-63
2021/07/30 09:21:28;;;;;;;6.40;5.20;;;28.90;59.80;;;29.27;57.37;97709.41;5033985;28;21004;-63
2021/07/30 09:23:59;;;;;;;6.40;4.80;;;28.90;60.70;;;29.22;55.38;97701.19;5027325;28;20683;-63
2021/07/30 09:26:44;;;;;;;6.07;5.47;;;28.80;58.10;;;29.31;57.33;97710.59;5039194;28;20626;-64
2021/07/30 09:29:16;;;;;;;5.20;4.70;;;28.90;61.20;;;29.33;55.92;97709.31;5028344;28;21112;-63
2021/07/30 09:31:49;;;;;;;5.10;4.60;;;28.90;58.90;;;29.40;57.38;97709.22;5027426;28;20659;-62
2021/07/30 09:34:21;;;;;;;4.80;4.30;;;29.00;61.10;;;29.41;56.29;97708.16;5027646;28;20974;-62
2021/07/30 09:36:54;;;;;;;4.93;4.53;;;29.00;59.00;;;29.40;57.13;97715.41;5027174;28;20628;-62
2021/07/30 09:39:26;;;;;;;5.60;5.10;;;29.00;60.10;;;29.42;56.02;97701.72;5022966;28;20615;-62
2021/07/30 09:42:03;;;;;;;5.63;5.13;;;29.00;58.70;;;29.38;55.30;97689.78;5030206;28;20725;-62
2021/07/30 09:44:35;;;;;;;6.40;5.80;;;29.00;58.20;;;29.42;54.84;97696.34;5029482;28;20687;-62
2021/07/30 09:47:15;;;;;;;5.90;5.30;;;29.00;57.40;;;29.41;55.57;97681.25;5030369;28;20651;-62
2021/07/30 09:49:55;;;;;;;5.47;4.93;;;29.00;57.60;;;29.43;55.05;97685.38;5027724;28;20668;-62
2021/07/30 09:52:26;;;;;;;5.60;5.10;;;29.00;57.70;;;29.45;56.40;97679.75;5022583;28;21032;-62
2021/07/30 09:54:56;;;;;;;6.33;5.70;;;29.00;58.70;;;29.38;57.71;97670.97;5027291;28;21227;-62
2021/07/30 09:57:27;;;;;;;6.63;6.03;;;28.90;60.40;;;29.31;57.35;97678.34;5028982;28;20618;-62
2021/07/30 10:00:01;;;;;;;6.13;5.63;;;28.80;59.10;;;29.37;57.31;97675.53;5029845;28;20617;-62
2021/07/30 10:02:34;;;;;;;7.87;5.90;;;28.90;59.90;;;29.38;58.29;97677.19;5032013;28;20990;-62
2021/07/30 10:05:07;;;;;;;5.97;5.37;;;28.90;60.50;;;29.35;57.28;97676.81;5024812;28;20722;-63
2021/07/30 10:07:36;;;;;;;9.37;7.40;;;29.00;59.70;;;29.45;57.74;97677.06;5023863;28;20633;-62
2021/07/30 10:10:10;;;;;;;7.57;6.87;;;29.00;60.40;;;29.47;58.61;97670.41;5027488;28;21211;-62
2021/07/30 10:12:46;;;;;;;6.90;6.20;;;29.10;61.40;;;29.55;57.97;97662.81;5025146;28;20638;-62
2021/07/30 10:15:17;;;;;;;6.40;5.80;;;29.10;59.70;;;29.42;56.83;97659.53;5023899;28;20717;-62
2021/07/30 10:17:49;;;;;;;8.20;6.43;;;29.00;58.20;;;29.46;57.48;97657.22;5027189;28;21195;-62
2021/07/30 10:20:20;;;;;;;7.50;6.60;;;29.00;59.40;;;29.53;58.29;97654.16;5024090;28;21219;-62
2021/07/30 10:22:55;;;;;;;7.03;5.70;;;29.10;60.70;;;29.56;57.96;97650.19;5022474;28;20665;-62
2021/07/30 10:25:25;;;;;;;6.80;6.10;;;29.10;60.20;;;29.63;57.35;97648.19;5033417;28;20690;-62
2021/07/30 10:27:58;;;;;;;6.50;5.90;;;29.20;60.00;;;29.60;58.30;97645.97;5026782;28;20730;-62